createdAt,value
2022-07-29T00:03:04.988Z,97928.78
2022-07-29T00:07:07.197Z,97924.09
2022-07-29T00:11:09.688Z,97917.31
2022-07-29T00:15:11.835Z,97932.28
2022-07-29T00:19:13.889Z,97937.84
2022-07-29T00:23:16.172Z,97946.69
2022-07-29T00:27:18.969Z,97962.38
2022-07-29T00:31:21.024Z,97972.19
2022-07-29T00:35:41.703Z,97962.28
2022-07-29T00:39:43.923Z,97958.06
2022-07-29T00:43:46.485Z,97946.56
2022-07-29T00:47:48.695Z,97941.84
2022-07-29T00:51:51.002Z,97952.47
2022-07-29T00:55:55.695Z,97944.97
2022-07-29T00:59:57.763Z,97943.28
2022-07-29T01:03:59.810Z,97927.34
2022-07-29T01:08:03.479Z,97917.94
2022-07-29T01:12:06.130Z,97920.81
2022-07-29T01:16:25.804Z,97924.56
2022-07-29T01:21:04.681Z,97915.50
2022-07-29T01:25:27.871Z,97905.34
2022-07-29T01:29:38.657Z,97898.47
2022-07-29T01:33:49.400Z,97887.84
2022-07-29T01:37:58.584Z,97871.84
2022-07-29T01:42:10.944Z,97866.53
2022-07-29T01:46:18.668Z,97866.94
2022-07-29T01:50:26.914Z,97856.66
2022-07-29T01:54:38.372Z,97846.16
2022-07-29T01:58:44.703Z,97856.31
2022-07-29T02:02:48.801Z,97857.88
2022-07-29T02:06:55.320Z,97864.66
2022-07-29T02:10:58.995Z,97864.06
2022-07-29T02:15:03.975Z,97851.84
2022-07-29T02:19:09.601Z,97841.22
2022-07-29T02:23:13.712Z,97844.94
2022-07-29T02:27:16.367Z,97841.66
2022-07-29T02:31:22.710Z,97836.47
2022-07-29T02:35:25.724Z,97837.31
2022-07-29T02:39:30.937Z,97831.88
2022-07-29T02:43:34.763Z,97829.00
2022-07-29T02:47:48.536Z,97833.31
2022-07-29T02:51:55.656Z,97816.44
2022-07-29T02:56:00.432Z,97818.53
2022-07-29T03:00:07.550Z,97821.78
2022-07-29T03:04:12.442Z,97842.56
2022-07-29T03:08:16.898Z,97833.88
2022-07-29T03:12:19.306Z,97845.91
2022-07-29T03:16:23.068Z,97854.09
2022-07-29T03:20:25.658Z,97851.44
2022-07-29T03:24:35.630Z,97837.94
2022-07-29T03:28:37.671Z,97834.75
2022-07-29T03:32:42.451Z,97834.84
2022-07-29T03:36:47.031Z,97842.09
2022-07-29T03:41:01.652Z,97848.72
2022-07-29T03:45:08.137Z,97872.41
2022-07-29T03:49:12.254Z,97838.09
2022-07-29T03:53:14.721Z,97787.97
2022-07-29T03:57:17.311Z,97780.19
2022-07-29T04:01:20.936Z,97793.41
2022-07-29T04:05:23.010Z,97810.09
2022-07-29T04:09:25.088Z,97814.06
2022-07-29T04:13:27.266Z,97801.97
2022-07-29T04:17:29.283Z,97808.47
2022-07-29T04:21:31.334Z,97817.66
2022-07-29T04:25:33.396Z,97817.44
2022-07-29T04:29:35.566Z,97812.34
2022-07-29T04:33:37.652Z,97822.47
2022-07-29T04:37:39.669Z,97817.69
2022-07-29T04:41:41.731Z,97821.34
2022-07-29T04:45:45.046Z,97828.03
2022-07-29T04:49:47.097Z,97819.06
2022-07-29T04:53:49.141Z,97820.53
2022-07-29T04:57:51.164Z,97824.47
2022-07-29T05:01:53.297Z,97826.66
2022-07-29T05:05:55.532Z,97830.47
2022-07-29T05:09:57.900Z,97833.47
2022-07-29T05:13:59.997Z,97839.69
2022-07-29T05:18:02.677Z,97829.63
2022-07-29T05:22:04.766Z,97846.13
2022-07-29T05:26:06.766Z,97839.06
2022-07-29T05:30:09.562Z,97843.03
2022-07-29T05:34:11.906Z,97839.56
2022-07-29T05:38:13.912Z,97836.47
2022-07-29T05:42:15.928Z,97845.47
2022-07-29T05:46:18.073Z,97854.28
2022-07-29T05:50:20.414Z,97858.88
2022-07-29T05:54:22.486Z,97845.19
2022-07-29T05:58:24.483Z,97854.56
2022-07-29T06:02:26.700Z,97845.44
2022-07-29T06:06:28.754Z,97838.06
2022-07-29T06:10:30.791Z,97844.41
2022-07-29T06:14:33.567Z,97851.34
2022-07-29T06:18:36.003Z,97848.59
2022-07-29T06:22:38.019Z,97851.06
2022-07-29T06:26:40.819Z,97834.53
2022-07-29T06:30:42.902Z,97830.09
2022-07-29T06:34:48.871Z,97842.97
2022-07-29T06:38:52.039Z,97837.38
2022-07-29T06:42:54.419Z,97834.97
2022-07-29T06:46:57.037Z,97837.41
2022-07-29T06:50:59.934Z,97829.66
2022-07-29T06:55:01.951Z,97835.56
2022-07-29T06:59:05.101Z,97843.91
2022-07-29T07:03:07.113Z,97852.06
2022-07-29T07:07:09.153Z,97855.28
2022-07-29T07:11:11.214Z,97862.09
2022-07-29T07:15:13.251Z,97853.88
2022-07-29T07:19:15.413Z,97859.97
2022-07-29T07:23:17.528Z,97867.25
2022-07-29T07:27:19.574Z,97869.66
2022-07-29T07:31:21.800Z,97872.47
2022-07-29T07:35:23.903Z,97877.03
2022-07-29T07:39:27.060Z,97873.88
2022-07-29T07:43:29.230Z,97872.88
2022-07-29T07:47:31.435Z,97859.59
2022-07-29T07:51:36.295Z,97868.41
2022-07-29T08:00:06.004Z,97868.44
2022-07-29T08:04:14.689Z,97875.19
2022-07-29T08:08:17.019Z,97879.38
2022-07-29T08:12:19.041Z,97868.50
2022-07-29T08:16:21.461Z,97860.06
2022-07-29T08:20:23.665Z,97859.78
2022-07-29T08:24:44.163Z,97869.03
2022-07-29T08:28:49.545Z,97864.22
2022-07-29T08:32:55.089Z,97862.72
2022-07-29T08:36:58.118Z,97869.53
2022-07-29T08:41:01.924Z,97863.25
2022-07-29T08:45:05.843Z,97868.78
2022-07-29T08:49:08.156Z,97875.09
2022-07-29T08:53:15.223Z,97874.09
2022-07-29T08:57:17.485Z,97886.13
2022-07-29T09:01:35.787Z,97873.72
2022-07-29T09:05:47.520Z,97873.84
2022-07-29T09:09:50.290Z,97870.22
2022-07-29T09:13:52.583Z,97880.69
2022-07-29T09:17:56.289Z,97865.41
2022-07-29T09:22:03.242Z,97872.00
2022-07-29T09:26:07.144Z,97866.63
2022-07-29T09:30:11.595Z,97867.28
2022-07-29T09:34:17.427Z,97853.69
2022-07-29T09:38:19.534Z,97857.03
2022-07-29T09:42:33.373Z,97858.31
2022-07-29T09:46:35.739Z,97856.16
2022-07-29T09:54:43.029Z,97856.72
2022-07-29T09:58:45.076Z,97857.31
2022-07-29T10:02:48.318Z,97857.97
2022-07-29T10:07:05.082Z,97852.09
2022-07-29T10:11:18.798Z,97853.50
2022-07-29T10:15:23.034Z,97849.88
2022-07-29T10:19:25.530Z,97847.53
2022-07-29T10:23:30.301Z,97849.22
2022-07-29T10:27:52.046Z,97853.25
2022-07-29T10:32:06.013Z,97837.44
2022-07-29T10:36:36.514Z,97844.56
2022-07-29T10:41:32.439Z,97846.69
2022-07-29T10:45:50.227Z,97843.13
2022-07-29T10:50:01.359Z,97845.91
2022-07-29T10:54:06.538Z,97836.84
2022-07-29T10:58:24.507Z,97836.22
2022-07-29T11:02:42.150Z,97838.34
2022-07-29T11:07:11.039Z,97840.03
2022-07-29T11:11:32.113Z,97836.56
2022-07-29T11:15:57.339Z,97833.84
2022-07-29T11:20:38.257Z,97829.09
2022-07-29T11:24:50.275Z,97825.97
2022-07-29T11:29:15.973Z,97840.69
2022-07-29T11:33:54.037Z,97838.72
2022-07-29T11:38:31.647Z,97822.34
2022-07-29T11:42:37.104Z,97829.09
2022-07-29T11:46:54.042Z,97825.09
2022-07-29T11:50:58.354Z,97818.31
2022-07-29T11:55:09.985Z,97813.28
2022-07-29T11:59:15.312Z,97811.25
2022-07-29T12:03:33.428Z,97810.09
2022-07-29T12:07:40.948Z,97814.19
2022-07-29T12:11:45.040Z,97809.97
2022-07-29T12:16:00.188Z,97810.44
2022-07-29T12:20:05.453Z,97797.50
2022-07-29T12:24:09.542Z,97800.25
2022-07-29T12:28:14.379Z,97786.19
2022-07-29T12:32:36.849Z,97788.44
2022-07-29T12:36:39.001Z,97784.22
2022-07-29T12:40:41.354Z,97771.63
2022-07-29T12:44:48.116Z,97767.03
2022-07-29T12:48:57.516Z,97774.31
2022-07-29T12:53:11.072Z,97758.19
2022-07-29T12:57:19.867Z,97753.13
2022-07-29T13:01:22.334Z,97755.41
2022-07-29T13:05:25.349Z,97758.72
2022-07-29T13:09:38.110Z,97753.44
2022-07-29T13:14:05.640Z,97766.50
2022-07-29T13:18:32.118Z,97770.22
2022-07-29T13:22:34.160Z,97755.22
2022-07-29T13:26:40.858Z,97755.72
2022-07-29T13:30:44.460Z,97764.22
2022-07-29T13:34:46.931Z,97763.97
2022-07-29T13:38:49.010Z,97765.09
2022-07-29T13:42:51.255Z,97770.25
2022-07-29T13:46:53.431Z,97765.25
2022-07-29T13:50:55.512Z,97765.31
2022-07-29T13:54:57.871Z,97781.78
2022-07-29T13:58:59.862Z,97787.66
2022-07-29T14:03:01.959Z,97786.50
2022-07-29T14:07:04.551Z,97788.00
2022-07-29T14:11:06.803Z,97770.03
2022-07-29T14:15:09.559Z,97789.38
2022-07-29T14:19:11.908Z,97807.31
2022-07-29T14:23:14.370Z,97820.38
2022-07-29T14:27:18.477Z,97817.84
2022-07-29T14:31:20.673Z,97829.81
2022-07-29T14:35:22.798Z,97830.16
2022-07-29T14:39:24.877Z,97830.59
2022-07-29T14:43:35.606Z,97833.03
2022-07-29T14:47:38.785Z,97833.78
2022-07-29T14:51:40.804Z,97828.22
2022-07-29T14:55:42.936Z,97823.09
2022-07-29T14:59:44.985Z,97805.78
2022-07-29T15:03:47.066Z,97794.41
2022-07-29T15:07:49.100Z,97796.38
2022-07-29T15:11:51.154Z,97807.88
2022-07-29T15:15:57.007Z,97799.75
2022-07-29T15:20:01.852Z,97788.19
2022-07-29T15:24:04.123Z,97786.22
2022-07-29T15:28:08.020Z,97787.16
2022-07-29T15:32:10.936Z,97782.00
2022-07-29T15:36:25.434Z,97791.66
2022-07-29T15:40:37.100Z,97799.84
2022-07-29T15:44:39.197Z,97792.41
2022-07-29T15:48:41.343Z,97798.00
2022-07-29T15:52:43.488Z,97792.78
2022-07-29T15:56:45.506Z,97803.75
2022-07-29T16:00:47.808Z,97808.78
2022-07-29T16:04:49.951Z,97795.84
2022-07-29T16:08:52.031Z,97809.22
2022-07-29T16:12:54.073Z,97800.22
2022-07-29T16:16:56.819Z,97797.53
2022-07-29T16:20:59.269Z,97794.88
2022-07-29T16:25:01.500Z,97791.66
2022-07-29T16:29:04.593Z,97784.75
2022-07-29T16:33:08.489Z,97790.50
2022-07-29T16:37:10.683Z,97784.94
2022-07-29T16:41:13.390Z,97799.06
2022-07-29T16:45:21.241Z,97800.97
2022-07-29T16:49:23.609Z,97807.84
2022-07-29T16:53:29.871Z,97798.81
2022-07-29T16:57:32.566Z,97794.31
2022-07-29T17:01:34.586Z,97800.19
2022-07-29T17:05:52.432Z,97805.50
2022-07-29T17:10:00.582Z,97814.13
2022-07-29T17:14:05.361Z,97819.03
2022-07-29T17:18:12.242Z,97831.69
2022-07-29T17:22:19.317Z,97837.59
2022-07-29T17:26:21.768Z,97843.13
2022-07-29T17:30:23.817Z,97849.06
2022-07-29T17:34:25.850Z,97854.84
2022-07-29T17:38:27.900Z,97856.00
2022-07-29T17:42:29.939Z,97865.31
2022-07-29T17:46:32.290Z,97872.22
2022-07-29T17:50:34.467Z,97870.97
2022-07-29T17:54:36.796Z,97875.75
2022-07-29T17:58:39.419Z,97868.59
2022-07-29T18:02:41.490Z,97868.19
2022-07-29T18:06:43.535Z,97871.84
2022-07-29T18:10:46.485Z,97887.47
2022-07-29T18:14:48.490Z,97892.25
2022-07-29T18:18:50.522Z,97896.34
2022-07-29T18:22:53.008Z,97905.63
2022-07-29T18:26:56.361Z,97908.31
2022-07-29T18:30:59.773Z,97917.00
2022-07-29T18:35:02.774Z,97911.41
2022-07-29T18:39:04.847Z,97924.19
2022-07-29T18:43:07.066Z,97925.31
2022-07-29T18:47:09.062Z,97927.97
2022-07-29T18:51:14.080Z,97924.34
2022-07-29T18:55:16.104Z,97932.63
2022-07-29T18:59:20.161Z,97936.81
2022-07-29T19:03:22.204Z,97944.13
2022-07-29T19:07:26.708Z,97946.72
2022-07-29T19:11:28.864Z,97944.31
2022-07-29T19:15:30.882Z,97944.38
2022-07-29T19:19:33.182Z,97932.59
2022-07-29T19:24:02.474Z,97943.09
2022-07-29T19:27:57.330Z,97956.56
2022-07-29T19:32:00.433Z,97974.44
2022-07-29T19:36:03.557Z,97968.41
2022-07-29T19:40:06.909Z,97974.84
2022-07-29T19:44:08.977Z,97979.03
2022-07-29T19:48:10.986Z,97970.34
2022-07-29T19:52:14.141Z,97990.31
2022-07-29T19:56:16.399Z,97993.47
2022-07-29T20:00:21.049Z,98007.84
2022-07-29T20:04:23.244Z,98011.56
2022-07-29T20:08:25.661Z,98010.44
2022-07-29T20:12:27.801Z,98015.28
2022-07-29T20:16:29.891Z,98017.81
2022-07-29T20:20:31.966Z,98018.50
2022-07-29T20:24:34.225Z,98022.47
2022-07-29T20:28:37.055Z,98026.88
2022-07-29T20:32:40.263Z,98035.56
2022-07-29T20:36:42.572Z,98039.91
2022-07-29T20:40:44.701Z,98053.41
2022-07-29T20:44:46.888Z,98035.22
2022-07-29T20:48:48.975Z,98044.53
2022-07-29T20:52:51.816Z,98028.22
2022-07-29T20:56:54.029Z,98025.94
2022-07-29T21:00:56.390Z,98031.22
2022-07-29T21:04:58.414Z,98023.28
2022-07-29T21:09:01.097Z,98037.56
2022-07-29T21:13:03.187Z,98047.97
2022-07-29T21:17:07.136Z,98053.69
2022-07-29T21:21:09.393Z,98046.09
2022-07-29T21:25:12.003Z,98043.75
2022-07-29T21:29:14.025Z,98038.25
2022-07-29T21:33:16.076Z,98047.69
2022-07-29T21:37:18.160Z,98045.13
2022-07-29T21:41:21.805Z,98044.91
2022-07-29T21:45:23.859Z,98049.59
2022-07-29T21:49:25.967Z,98043.53
2022-07-29T21:53:28.273Z,98055.59
2022-07-29T21:57:30.292Z,98051.50
2022-07-29T22:01:39.127Z,98036.59
2022-07-29T22:05:41.646Z,98030.66
2022-07-29T22:09:43.663Z,98023.47
2022-07-29T22:13:45.739Z,98023.91
2022-07-29T22:17:47.879Z,98031.59
2022-07-29T22:21:49.915Z,98033.28
2022-07-29T22:25:53.981Z,98027.41
2022-07-29T22:29:56.010Z,98039.16
2022-07-29T22:33:58.120Z,98038.22
2022-07-29T22:38:00.168Z,98043.84
2022-07-29T22:42:02.208Z,98034.75
2022-07-29T22:46:04.291Z,98039.56
2022-07-29T22:50:06.729Z,98059.81
2022-07-29T22:54:08.839Z,98056.00
2022-07-29T22:58:10.967Z,98063.63
2022-07-29T23:02:13.156Z,98058.41
2022-07-29T23:06:15.288Z,98056.66
2022-07-29T23:10:17.493Z,98051.84
2022-07-29T23:14:19.539Z,98059.53
2022-07-29T23:18:21.616Z,98064.41
2022-07-29T23:22:23.718Z,98066.94
2022-07-29T23:26:25.789Z,98073.63
2022-07-29T23:30:28.513Z,98075.44
2022-07-29T23:34:30.589Z,98065.25
2022-07-29T23:38:32.783Z,98084.25
2022-07-29T23:42:34.885Z,98094.75
2022-07-29T23:46:37.008Z,98077.16
2022-07-29T23:50:39.128Z,98060.16
2022-07-29T23:54:41.285Z,98065.16
2022-07-29T23:58:43.324Z,98060.19
